createdAt,value
2023-03-19T00:01:53.268Z,96653.03
2023-03-19T00:04:41.788Z,96658.09
2023-03-19T00:07:32.221Z,96651.94
2023-03-19T00:10:20.574Z,96655.41
2023-03-19T00:13:10.270Z,96651.16
2023-03-19T00:16:00.110Z,96646.88
2023-03-19T00:18:49.299Z,96647.69
2023-03-19T00:21:37.877Z,96642.19
2023-03-19T00:24:26.689Z,96635.31
2023-03-19T00:27:15.092Z,96637.72
2023-03-19T00:30:04.876Z,96638.13
2023-03-19T00:32:55.125Z,96646.06
2023-03-19T00:35:43.659Z,96637.50
2023-03-19T00:38:32.062Z,96640.16
2023-03-19T00:41:20.829Z,96647.13
2023-03-19T00:44:09.212Z,96644.41
2023-03-19T00:46:57.634Z,96641.56
2023-03-19T00:49:47.398Z,96643.41
2023-03-19T00:52:35.865Z,96640.00
2023-03-19T00:55:25.669Z,96650.09
2023-03-19T00:58:14.376Z,96661.59
2023-03-19T01:01:03.606Z,96652.72
2023-03-19T01:03:52.072Z,96659.44
2023-03-19T01:06:41.907Z,96665.50
2023-03-19T01:09:30.400Z,96664.78
2023-03-19T01:12:19.488Z,96666.88
2023-03-19T01:15:09.129Z,96664.66
2023-03-19T01:17:57.523Z,96661.94
2023-03-19T01:20:45.907Z,96659.78
2023-03-19T01:23:36.179Z,96661.94
2023-03-19T01:26:24.555Z,96658.19
2023-03-19T01:29:17.152Z,96659.22
2023-03-19T01:32:06.114Z,96667.16
2023-03-19T01:35:20.981Z,96669.97
2023-03-19T01:38:11.128Z,96668.19
2023-03-19T01:41:01.640Z,96666.00
2023-03-19T01:43:51.270Z,96670.22
2023-03-19T01:46:59.096Z,96668.03
2023-03-19T01:49:57.640Z,96663.81
2023-03-19T01:52:46.184Z,96663.25
2023-03-19T01:56:13.384Z,96664.03
2023-03-19T01:59:37.175Z,96657.13
2023-03-19T02:02:33.247Z,96657.34
2023-03-19T02:05:29.184Z,96659.50
2023-03-19T02:08:24.887Z,96664.09
2023-03-19T02:11:15.850Z,96667.19
2023-03-19T02:14:04.477Z,96676.25
2023-03-19T02:16:53.104Z,96666.38
2023-03-19T02:19:48.415Z,96662.41
2023-03-19T02:22:37.934Z,96665.91
2023-03-19T02:25:29.650Z,96657.44
2023-03-19T02:28:20.643Z,96664.28
2023-03-19T02:31:11.000Z,96671.78
2023-03-19T02:34:04.154Z,96676.03
2023-03-19T02:36:54.911Z,96683.53
2023-03-19T02:39:50.844Z,96677.44
2023-03-19T02:42:39.259Z,96682.25
2023-03-19T02:45:30.666Z,96682.00
2023-03-19T02:48:19.059Z,96689.75
2023-03-19T02:51:08.670Z,96692.47
2023-03-19T02:53:57.121Z,96695.16
2023-03-19T02:56:46.226Z,96720.69
2023-03-19T02:59:34.782Z,96702.81
2023-03-19T03:02:24.694Z,96707.34
2023-03-19T03:05:13.558Z,96705.16
2023-03-19T03:08:03.241Z,96689.38
2023-03-19T03:10:51.702Z,96686.69
2023-03-19T03:13:40.244Z,96700.31
2023-03-19T03:16:28.821Z,96697.38
2023-03-19T03:19:19.405Z,96700.81
2023-03-19T03:22:09.155Z,96698.13
2023-03-19T03:24:57.613Z,96704.50
2023-03-19T03:27:46.254Z,96696.22
2023-03-19T03:30:34.996Z,96698.59
2023-03-19T03:33:23.555Z,96695.94
2023-03-19T03:36:14.128Z,96697.53
2023-03-19T03:39:02.514Z,96702.88
2023-03-19T03:41:51.646Z,96701.25
2023-03-19T03:44:40.674Z,96702.53
2023-03-19T03:47:29.172Z,96700.66
2023-03-19T03:50:17.623Z,96707.56
2023-03-19T03:53:09.582Z,96708.97
2023-03-19T03:55:58.107Z,96713.59
2023-03-19T03:58:48.324Z,96720.41
2023-03-19T04:01:37.115Z,96719.88
2023-03-19T04:04:26.621Z,96720.66
2023-03-19T04:07:15.193Z,96718.53
2023-03-19T04:10:11.910Z,96722.81
2023-03-19T04:13:00.446Z,96716.94
2023-03-19T04:15:50.964Z,96723.88
2023-03-19T04:18:39.648Z,96721.75
2023-03-19T04:21:29.757Z,96720.69
2023-03-19T04:24:18.328Z,96718.53
2023-03-19T04:27:08.670Z,96717.75
2023-03-19T04:29:58.474Z,96716.94
2023-03-19T04:32:47.651Z,96718.44
2023-03-19T04:35:36.992Z,96724.00
2023-03-19T04:38:27.733Z,96737.13
2023-03-19T04:41:16.974Z,96735.75
2023-03-19T04:44:19.408Z,96743.97
2023-03-19T04:47:08.107Z,96747.78
2023-03-19T04:50:10.682Z,96764.22
2023-03-19T04:52:59.086Z,96764.25
2023-03-19T04:55:47.953Z,96761.31
2023-03-19T04:58:38.929Z,96758.44
2023-03-19T05:01:28.769Z,96755.28
2023-03-19T05:04:21.308Z,96752.91
2023-03-19T05:07:10.865Z,96753.69
2023-03-19T05:09:59.594Z,96760.63
2023-03-19T05:12:47.939Z,96766.75
2023-03-19T05:15:36.547Z,96767.53
2023-03-19T05:18:29.690Z,96763.25
2023-03-19T05:21:18.470Z,96763.25
2023-03-19T05:24:07.523Z,96776.88
2023-03-19T05:26:58.251Z,96777.66
2023-03-19T05:29:58.294Z,96766.47
2023-03-19T05:33:22.540Z,96757.38
2023-03-19T05:36:13.772Z,96753.63
2023-03-19T05:39:13.879Z,96774.44
2023-03-19T05:42:04.518Z,96777.09
2023-03-19T05:44:53.075Z,96775.47
2023-03-19T05:47:49.226Z,96782.94
2023-03-19T05:50:40.081Z,96784.00
2023-03-19T05:53:43.315Z,96783.78
2023-03-19T05:56:50.366Z,96790.41
2023-03-19T06:00:01.759Z,96792.28
2023-03-19T06:02:55.979Z,96806.13
2023-03-19T06:06:22.812Z,96810.19
2023-03-19T06:09:15.383Z,96818.16
2023-03-19T06:12:07.079Z,96814.97
2023-03-19T06:15:15.477Z,96828.28
2023-03-19T06:18:07.405Z,96829.34
2023-03-19T06:20:56.484Z,96844.28
2023-03-19T06:23:45.077Z,96848.00
2023-03-19T06:26:38.823Z,96853.34
2023-03-19T06:29:33.941Z,96858.66
2023-03-19T06:32:35.058Z,96866.13
2023-03-19T06:35:29.119Z,96866.13
2023-03-19T06:38:17.575Z,96854.38
2023-03-19T06:41:06.213Z,96868.00
2023-03-19T06:43:56.187Z,96878.91
2023-03-19T06:46:44.561Z,96866.13
2023-03-19T06:49:32.934Z,96874.66
2023-03-19T06:52:21.290Z,96869.31
2023-03-19T06:55:10.197Z,96867.47
2023-03-19T06:57:58.546Z,96872.53
2023-03-19T07:00:48.306Z,96881.06
2023-03-19T07:03:36.666Z,96877.84
2023-03-19T07:06:24.970Z,96883.41
2023-03-19T07:09:13.995Z,96894.31
2023-03-19T07:12:02.317Z,96896.41
2023-03-19T07:14:51.173Z,96891.59
2023-03-19T07:17:40.979Z,96886.28
2023-03-19T07:20:29.877Z,96889.97
2023-03-19T07:23:18.824Z,96896.03
2023-03-19T07:26:07.202Z,96899.41
2023-03-19T07:28:55.630Z,96903.13
2023-03-19T07:31:44.054Z,96905.81
2023-03-19T07:34:33.835Z,96921.25
2023-03-19T07:37:22.662Z,96925.47
2023-03-19T07:40:12.652Z,96925.38
2023-03-19T07:43:00.984Z,96937.06
2023-03-19T07:45:49.435Z,96938.56
2023-03-19T07:48:38.182Z,96939.56
2023-03-19T07:51:27.972Z,96948.66
2023-03-19T07:54:16.452Z,96949.72
2023-03-19T07:57:04.927Z,96949.09
2023-03-19T07:59:53.290Z,96947.88
2023-03-19T08:02:42.847Z,96948.84
2023-03-19T08:05:31.324Z,96951.97
2023-03-19T08:08:21.122Z,96960.94
2023-03-19T08:11:09.652Z,96971.63
2023-03-19T08:13:58.081Z,96972.84
2023-03-19T08:16:46.426Z,96960.47
2023-03-19T08:19:34.741Z,96966.84
2023-03-19T08:22:23.374Z,96967.69
2023-03-19T08:25:13.633Z,96964.03
2023-03-19T08:28:02.320Z,96970.31
2023-03-19T08:30:50.639Z,96964.84
2023-03-19T08:33:39.549Z,96962.34
2023-03-19T08:36:28.171Z,96956.84
2023-03-19T08:39:16.624Z,96955.47
2023-03-19T08:42:06.622Z,96963.13
2023-03-19T08:44:54.921Z,96963.47
2023-03-19T08:47:43.941Z,96972.75
2023-03-19T08:50:33.741Z,96968.84
2023-03-19T08:53:22.252Z,96974.31
2023-03-19T08:56:10.741Z,96970.69
2023-03-19T08:59:00.453Z,96981.78
2023-03-19T09:01:52.403Z,96973.78
2023-03-19T09:04:41.984Z,96979.00
2023-03-19T09:07:30.610Z,96974.78
2023-03-19T09:10:19.245Z,96980.22
2023-03-19T09:13:07.574Z,96987.63
2023-03-19T09:15:57.371Z,96985.44
2023-03-19T09:18:45.799Z,96990.47
2023-03-19T09:21:34.178Z,96996.75
2023-03-19T09:24:22.689Z,96995.34
2023-03-19T09:27:11.101Z,96991.09
2023-03-19T09:29:59.443Z,97002.03
2023-03-19T09:32:49.253Z,96998.63
2023-03-19T09:35:39.758Z,97005.13
2023-03-19T09:38:28.489Z,97008.38
2023-03-19T09:41:23.039Z,97008.19
2023-03-19T09:44:14.315Z,97007.50
2023-03-19T09:47:11.614Z,97010.28
2023-03-19T09:50:04.365Z,97011.25
2023-03-19T09:52:59.242Z,97011.66
2023-03-19T09:55:50.012Z,97010.56
2023-03-19T09:58:38.520Z,97000.78
2023-03-19T10:01:28.821Z,97006.66
2023-03-19T10:04:42.621Z,97004.19
2023-03-19T10:07:43.151Z,97002.91
2023-03-19T10:10:48.496Z,97001.00
2023-03-19T10:13:46.385Z,97008.50
2023-03-19T10:16:36.020Z,97014.91
2023-03-19T10:19:28.220Z,97020.38
2023-03-19T10:22:19.436Z,97017.63
2023-03-19T10:25:12.197Z,97014.44
2023-03-19T10:28:03.309Z,97012.53
2023-03-19T10:30:58.288Z,97016.06
2023-03-19T10:33:53.407Z,97019.50
2023-03-19T10:36:41.798Z,97012.56
2023-03-19T10:39:32.221Z,97012.13
2023-03-19T10:42:33.375Z,97010.09
2023-03-19T10:45:26.772Z,97004.28
2023-03-19T10:48:17.958Z,97010.28
2023-03-19T10:51:06.834Z,97003.03
2023-03-19T10:53:56.923Z,97009.13
2023-03-19T10:56:47.472Z,97006.19
2023-03-19T10:59:38.864Z,97002.22
2023-03-19T11:02:31.148Z,97000.78
2023-03-19T11:05:29.864Z,96998.44
2023-03-19T11:08:34.895Z,97003.13
2023-03-19T11:11:26.382Z,97002.19
2023-03-19T11:14:17.106Z,97004.78
2023-03-19T11:17:16.073Z,96991.44
2023-03-19T11:20:16.895Z,96997.00
2023-03-19T11:23:12.108Z,96987.66
2023-03-19T11:26:02.941Z,96985.91
2023-03-19T11:28:52.256Z,96987.19
2023-03-19T11:31:44.485Z,96984.03
2023-03-19T11:34:37.459Z,96991.66
2023-03-19T11:37:31.687Z,96987.72
2023-03-19T11:40:25.240Z,96981.19
2023-03-19T11:43:39.059Z,96978.38
2023-03-19T11:46:46.243Z,96970.91
2023-03-19T11:50:02.846Z,96976.28
2023-03-19T11:53:15.824Z,96976.44
2023-03-19T11:56:11.505Z,96975.63
2023-03-19T11:59:18.176Z,96970.56
2023-03-19T12:02:34.169Z,96971.69
2023-03-19T12:05:26.855Z,96968.50
2023-03-19T12:08:24.396Z,96969.13
2023-03-19T12:11:19.142Z,96969.69
2023-03-19T12:14:18.508Z,96965.75
2023-03-19T12:17:19.174Z,96965.97
2023-03-19T12:20:40.528Z,96965.34
2023-03-19T12:23:37.627Z,96965.69
2023-03-19T12:26:34.183Z,96963.19
2023-03-19T12:29:25.834Z,96954.19
2023-03-19T12:32:30.460Z,96958.94
2023-03-19T12:35:20.944Z,96958.44
2023-03-19T12:38:15.002Z,96952.41
2023-03-19T12:41:07.750Z,96943.88
2023-03-19T12:43:58.676Z,96937.97
2023-03-19T12:46:51.163Z,96942.09
2023-03-19T12:49:43.300Z,96932.25
2023-03-19T12:52:36.805Z,96920.38
2023-03-19T12:55:36.737Z,96922.72
2023-03-19T12:58:31.312Z,96921.59
2023-03-19T13:01:24.797Z,96925.91
2023-03-19T13:04:15.527Z,96925.75
2023-03-19T13:07:08.210Z,96922.75
2023-03-19T13:10:00.672Z,96922.09
2023-03-19T13:12:51.946Z,96919.19
2023-03-19T13:15:42.468Z,96906.78
2023-03-19T13:18:38.269Z,96911.28
2023-03-19T13:21:30.273Z,96913.19
2023-03-19T13:24:23.006Z,96912.38
2023-03-19T13:27:16.276Z,96913.97
2023-03-19T13:30:20.652Z,96909.69
2023-03-19T13:33:15.584Z,96915.56
2023-03-19T13:36:06.466Z,96910.00
2023-03-19T13:38:55.208Z,96916.84
2023-03-19T13:41:54.889Z,96914.66
2023-03-19T13:44:50.176Z,96911.78
2023-03-19T13:47:43.366Z,96902.53
2023-03-19T13:50:34.270Z,96899.22
2023-03-19T13:53:34.900Z,96903.81
2023-03-19T13:56:29.902Z,96905.25
2023-03-19T13:59:27.076Z,96907.16
2023-03-19T14:02:50.722Z,96901.13
2023-03-19T14:05:39.561Z,96887.78
2023-03-19T14:08:31.547Z,96893.66
2023-03-19T14:11:24.285Z,96894.16
2023-03-19T14:14:16.185Z,96897.16
2023-03-19T14:17:05.761Z,96891.28
2023-03-19T14:19:55.805Z,96892.25
2023-03-19T14:22:56.565Z,96892.06
2023-03-19T14:25:58.016Z,96888.22
2023-03-19T14:28:58.892Z,96889.81
2023-03-19T14:31:50.201Z,96901.59
2023-03-19T14:34:40.394Z,96900.34
2023-03-19T14:37:36.374Z,96893.19
2023-03-19T14:40:27.587Z,96892.88
2023-03-19T14:43:19.271Z,96883.00
2023-03-19T14:46:10.254Z,96880.13
2023-03-19T14:49:29.197Z,96881.41
2023-03-19T14:52:19.180Z,96889.03
2023-03-19T14:55:12.622Z,96875.84
2023-03-19T14:58:02.129Z,96872.97
2023-03-19T15:00:52.051Z,96872.63
2023-03-19T15:03:40.463Z,96871.97
2023-03-19T15:06:32.794Z,96866.97
2023-03-19T15:09:23.496Z,96869.91
2023-03-19T15:12:31.290Z,96873.22
2023-03-19T15:15:27.612Z,96864.69
2023-03-19T15:18:16.749Z,96866.69
2023-03-19T15:21:05.999Z,96868.66
2023-03-19T15:23:54.393Z,96869.44
2023-03-19T15:26:43.053Z,96869.78
2023-03-19T15:29:33.674Z,96861.59
2023-03-19T15:32:52.178Z,96865.53
2023-03-19T15:35:44.214Z,96861.34
2023-03-19T15:38:36.595Z,96860.56
2023-03-19T15:41:26.613Z,96858.31
2023-03-19T15:44:18.601Z,96858.75
2023-03-19T15:47:10.449Z,96853.00
2023-03-19T15:50:00.755Z,96851.31
2023-03-19T15:52:52.567Z,96856.75
2023-03-19T15:55:41.063Z,96858.09
2023-03-19T15:58:31.388Z,96842.91
2023-03-19T16:01:20.353Z,96854.84
2023-03-19T16:04:16.284Z,96851.69
2023-03-19T16:07:05.426Z,96854.41
2023-03-19T16:09:53.848Z,96857.81
2023-03-19T16:12:42.504Z,96861.06
2023-03-19T16:15:35.398Z,96860.38
2023-03-19T16:18:25.705Z,96862.06
2023-03-19T16:21:18.709Z,96859.72
2023-03-19T16:24:15.299Z,96860.00
2023-03-19T16:27:05.204Z,96864.13
2023-03-19T16:29:58.586Z,96868.44
2023-03-19T16:32:47.069Z,96875.97
2023-03-19T16:35:36.719Z,96872.94
2023-03-19T16:38:28.369Z,96873.25
2023-03-19T16:41:19.434Z,96882.94
2023-03-19T16:44:17.367Z,96887.28
2023-03-19T16:47:10.150Z,96891.91
2023-03-19T16:49:58.535Z,96892.09
2023-03-19T16:52:48.056Z,96885.28
2023-03-19T16:55:38.321Z,96890.41
2023-03-19T16:58:29.608Z,96886.94
2023-03-19T17:01:20.034Z,96888.88
2023-03-19T17:04:12.783Z,96898.78
2023-03-19T17:07:01.201Z,96898.63
2023-03-19T17:09:49.954Z,96896.91
2023-03-19T17:12:39.738Z,96898.84
2023-03-19T17:15:30.268Z,96908.25
2023-03-19T17:18:21.481Z,96904.72
2023-03-19T17:21:13.158Z,96909.84
2023-03-19T17:24:05.428Z,96902.69
2023-03-19T17:26:54.711Z,96913.34
2023-03-19T17:29:44.415Z,96912.41
2023-03-19T17:32:32.940Z,96923.69
2023-03-19T17:35:22.876Z,96924.19
2023-03-19T17:38:12.962Z,96930.06
2023-03-19T17:41:01.650Z,96924.97
2023-03-19T17:43:50.043Z,96929.25
2023-03-19T17:46:41.800Z,96928.63
2023-03-19T17:49:32.419Z,96927.19
2023-03-19T17:52:21.286Z,96927.66
2023-03-19T17:55:16.607Z,96932.41
2023-03-19T17:58:05.148Z,96938.25
2023-03-19T18:00:53.732Z,96939.03
2023-03-19T18:03:43.864Z,96943.44
2023-03-19T18:06:34.758Z,96936.44
2023-03-19T18:09:24.845Z,96939.41
2023-03-19T18:12:13.179Z,96939.88
2023-03-19T18:15:01.597Z,96939.22
2023-03-19T18:17:52.652Z,96936.66
2023-03-19T18:20:42.514Z,96943.78
2023-03-19T18:23:31.328Z,96934.25
2023-03-19T18:26:19.771Z,96941.03
2023-03-19T18:29:09.110Z,96942.56
2023-03-19T18:32:03.009Z,96946.19
2023-03-19T18:34:51.450Z,96945.34
2023-03-19T18:37:41.181Z,96944.88
2023-03-19T18:40:31.979Z,96941.50
2023-03-19T18:43:20.915Z,96939.72
2023-03-19T18:46:11.827Z,96941.13
2023-03-19T18:49:01.843Z,96948.56
2023-03-19T18:52:01.743Z,96947.56
2023-03-19T18:54:52.596Z,96951.97
2023-03-19T18:57:52.328Z,96949.41
2023-03-19T19:00:41.377Z,96959.22
2023-03-19T19:03:31.684Z,96955.84
2023-03-19T19:06:24.800Z,96971.44
2023-03-19T19:09:16.921Z,96967.09
2023-03-19T19:12:09.475Z,96964.22
2023-03-19T19:14:58.762Z,96970.19
2023-03-19T19:17:47.945Z,96967.91
2023-03-19T19:20:36.417Z,96978.31
2023-03-19T19:23:27.252Z,96971.97
2023-03-19T19:26:22.839Z,96985.19
2023-03-19T19:29:18.732Z,96986.50
2023-03-19T19:32:10.690Z,96982.22
2023-03-19T19:34:59.049Z,96980.50
2023-03-19T19:37:47.410Z,96984.63
2023-03-19T19:40:36.078Z,96986.94
2023-03-19T19:43:25.915Z,96993.03
2023-03-19T19:46:17.527Z,96995.53
2023-03-19T19:49:06.560Z,96990.41
2023-03-19T19:51:54.879Z,96999.41
2023-03-19T19:54:43.251Z,96998.50
2023-03-19T19:57:31.574Z,97002.94
2023-03-19T20:00:22.508Z,97008.88
2023-03-19T20:03:20.978Z,97006.69
2023-03-19T20:06:09.577Z,97015.22
2023-03-19T20:08:57.907Z,97024.00
2023-03-19T20:11:47.842Z,97030.47
2023-03-19T20:14:36.842Z,97040.09
2023-03-19T20:17:25.310Z,97056.31
2023-03-19T20:20:25.691Z,97052.06
2023-03-19T20:23:15.232Z,97062.09
2023-03-19T20:26:03.707Z,97053.28
2023-03-19T20:28:52.184Z,97050.97
2023-03-19T20:31:40.490Z,97052.94
2023-03-19T20:34:38.690Z,97065.16
2023-03-19T20:37:29.270Z,97064.09
2023-03-19T20:40:18.299Z,97066.09
2023-03-19T20:43:07.713Z,97067.25
2023-03-19T20:45:56.674Z,97074.81
2023-03-19T20:48:45.057Z,97077.44
2023-03-19T20:51:33.688Z,97076.03
2023-03-19T20:54:23.748Z,97077.88
2023-03-19T20:57:14.581Z,97077.28
2023-03-19T21:00:04.328Z,97079.22
2023-03-19T21:02:54.072Z,97085.63
2023-03-19T21:05:42.608Z,97081.75
2023-03-19T21:08:33.515Z,97079.06
2023-03-19T21:11:25.004Z,97079.03
2023-03-19T21:14:15.948Z,97080.81
2023-03-19T21:17:04.811Z,97078.13
2023-03-19T21:19:53.139Z,97081.88
2023-03-19T21:22:41.917Z,97084.84
2023-03-19T21:25:31.539Z,97087.03
2023-03-19T21:28:26.496Z,97087.03
2023-03-19T21:31:18.122Z,97083.56
2023-03-19T21:34:07.008Z,97083.91
2023-03-19T21:36:55.497Z,97094.06
2023-03-19T21:39:43.858Z,97086.91
2023-03-19T21:42:33.143Z,97091.00
2023-03-19T21:45:27.508Z,97083.00
2023-03-19T21:48:24.531Z,97086.16
2023-03-19T21:51:14.441Z,97087.84
2023-03-19T21:54:02.880Z,97092.00
2023-03-19T21:56:51.580Z,97095.63
2023-03-19T21:59:40.287Z,97088.59
2023-03-19T22:02:43.645Z,97089.38
2023-03-19T22:05:32.034Z,97088.00
2023-03-19T22:08:21.607Z,97088.31
2023-03-19T22:11:15.130Z,97088.41
2023-03-19T22:14:06.545Z,97083.19
2023-03-19T22:16:56.648Z,97080.44
2023-03-19T22:19:46.606Z,97079.19
2023-03-19T22:22:35.025Z,97080.06
2023-03-19T22:25:23.829Z,97084.19
2023-03-19T22:28:17.789Z,97085.63
2023-03-19T22:31:06.888Z,97083.09
2023-03-19T22:33:55.322Z,97091.00
2023-03-19T22:36:45.317Z,97085.63
2023-03-19T22:39:33.732Z,97103.28
2023-03-19T22:42:22.409Z,97105.38
2023-03-19T22:45:16.495Z,97111.31
2023-03-19T22:48:05.395Z,97116.09
2023-03-19T22:50:53.963Z,97107.97
2023-03-19T22:53:43.720Z,97118.09
2023-03-19T22:56:32.222Z,97117.56
2023-03-19T22:59:20.824Z,97116.31
2023-03-19T23:02:10.690Z,97121.25
2023-03-19T23:04:59.038Z,97120.66
2023-03-19T23:07:47.386Z,97110.94
2023-03-19T23:10:37.331Z,97111.53
2023-03-19T23:13:26.176Z,97119.00
2023-03-19T23:16:20.886Z,97110.84
2023-03-19T23:19:11.987Z,97111.75
2023-03-19T23:22:02.523Z,97119.41
2023-03-19T23:24:50.986Z,97124.19
2023-03-19T23:27:40.686Z,97126.88
2023-03-19T23:30:31.555Z,97125.34
2023-03-19T23:33:21.027Z,97119.25
2023-03-19T23:36:10.192Z,97120.16
2023-03-19T23:38:59.343Z,97116.56
2023-03-19T23:41:49.374Z,97121.59
2023-03-19T23:44:39.242Z,97127.97
2023-03-19T23:47:28.077Z,97128.22
2023-03-19T23:50:16.769Z,97124.19
2023-03-19T23:53:05.180Z,97125.56
2023-03-19T23:55:56.943Z,97127.03
2023-03-19T23:58:45.928Z,97127.84
